createdAt,value
2022-07-29T00:01:04.160Z,17.15
2022-07-29T00:06:06.568Z,16.42
2022-07-29T00:11:08.659Z,17.00
2022-07-29T00:16:10.993Z,15.32
2022-07-29T00:21:13.102Z,14.02
2022-07-29T00:26:15.109Z,14.18
2022-07-29T00:31:17.225Z,15.85
2022-07-29T00:36:19.346Z,22.52
2022-07-29T00:41:21.806Z,22.58
2022-07-29T00:46:23.874Z,20.85
2022-07-29T00:51:27.193Z,26.05
2022-07-29T00:56:31.386Z,26.40
2022-07-29T01:01:33.426Z,26.95
2022-07-29T01:06:35.925Z,22.23
2022-07-29T01:11:38.138Z,22.33
2022-07-29T01:16:52.684Z,22.40
2022-07-29T01:21:59.852Z,18.40
2022-07-29T01:27:23.894Z,14.55
2022-07-29T01:32:31.054Z,14.88
2022-07-29T01:37:40.868Z,16.38
2022-07-29T01:42:56.161Z,18.80
2022-07-29T01:48:22.880Z,13.93
2022-07-29T01:53:37.984Z,18.52
2022-07-29T01:58:42.127Z,14.73
2022-07-29T02:03:45.535Z,15.50
2022-07-29T02:08:48.497Z,15.65
2022-07-29T02:13:50.938Z,13.43
2022-07-29T02:18:54.152Z,12.00
2022-07-29T02:23:57.298Z,10.00
2022-07-29T02:29:00.415Z,11.50
2022-07-29T02:34:08.365Z,10.85
2022-07-29T02:39:12.173Z,11.65
2022-07-29T02:44:17.784Z,11.57
2022-07-29T02:49:28.890Z,15.15
2022-07-29T02:54:53.227Z,10.55
2022-07-29T02:59:58.860Z,11.60
2022-07-29T03:05:02.077Z,15.40
2022-07-29T03:10:05.014Z,16.85
2022-07-29T03:15:13.516Z,13.05
2022-07-29T03:20:15.734Z,12.80
2022-07-29T03:25:19.700Z,9.48
2022-07-29T03:30:22.543Z,11.35
2022-07-29T03:35:24.710Z,10.23
2022-07-29T03:40:29.496Z,12.85
2022-07-29T03:45:32.251Z,13.38
2022-07-29T03:50:34.939Z,13.13
2022-07-29T03:55:46.752Z,11.68
2022-07-29T04:00:49.367Z,11.27
2022-07-29T04:06:07.901Z,8.80
2022-07-29T04:11:10.148Z,8.32
2022-07-29T04:16:12.254Z,8.25
2022-07-29T04:21:14.693Z,9.55
2022-07-29T04:26:19.502Z,8.95
2022-07-29T04:31:25.684Z,9.45
2022-07-29T04:36:29.378Z,8.90
2022-07-29T04:41:33.029Z,8.43
2022-07-29T04:46:38.698Z,7.82
2022-07-29T04:51:40.849Z,9.48
2022-07-29T04:56:42.993Z,15.25
2022-07-29T05:01:44.993Z,10.23
2022-07-29T05:06:47.048Z,11.05
2022-07-29T05:11:49.258Z,7.40
2022-07-29T05:16:52.137Z,12.75
2022-07-29T05:21:54.221Z,7.82
2022-07-29T05:26:56.378Z,12.93
2022-07-29T05:31:58.549Z,7.68
2022-07-29T05:37:00.552Z,4.65
2022-07-29T05:42:02.589Z,12.07
2022-07-29T05:47:04.721Z,6.43
2022-07-29T05:52:06.698Z,4.78
2022-07-29T05:57:09.060Z,4.82
2022-07-29T06:02:11.063Z,3.72
2022-07-29T06:07:13.170Z,10.00
2022-07-29T06:12:15.611Z,3.40
2022-07-29T06:17:18.246Z,4.50
2022-07-29T06:22:20.390Z,4.73
2022-07-29T06:27:22.542Z,5.47
2022-07-29T06:32:27.479Z,4.88
2022-07-29T06:37:29.504Z,2.60
2022-07-29T06:42:34.081Z,2.15
2022-07-29T06:47:36.285Z,5.68
2022-07-29T06:52:41.889Z,4.07
2022-07-29T06:57:44.053Z,12.32
2022-07-29T07:02:46.668Z,2.53
2022-07-29T07:12:51.947Z,7.55
2022-07-29T07:17:55.627Z,2.70
2022-07-29T07:22:57.836Z,4.13
2022-07-29T07:28:00.117Z,4.35
2022-07-29T07:33:02.172Z,5.00
2022-07-29T07:38:04.217Z,3.08
2022-07-29T07:43:06.307Z,7.45
2022-07-29T07:48:11.275Z,5.20
2022-07-29T07:53:13.312Z,4.15
2022-07-29T07:58:15.592Z,2.63
2022-07-29T08:03:17.540Z,3.65
2022-07-29T08:08:19.541Z,5.38
2022-07-29T08:13:22.851Z,4.43
2022-07-29T08:18:26.080Z,3.88
2022-07-29T08:28:51.870Z,4.45
2022-07-29T08:33:54.073Z,5.70
2022-07-29T08:38:56.298Z,5.80
2022-07-29T08:43:58.552Z,4.03
2022-07-29T08:49:00.619Z,6.97
2022-07-29T08:54:03.221Z,6.88
2022-07-29T08:59:06.553Z,4.93
2022-07-29T09:04:12.669Z,5.32
2022-07-29T09:09:15.740Z,10.20
2022-07-29T09:14:17.946Z,3.58
2022-07-29T09:19:27.236Z,5.00
2022-07-29T09:24:45.012Z,4.70
2022-07-29T09:29:47.850Z,8.07
2022-07-29T09:34:50.033Z,3.13
2022-07-29T09:39:53.565Z,6.38
2022-07-29T09:44:55.723Z,5.13
2022-07-29T09:50:00.217Z,3.70
2022-07-29T09:55:06.781Z,4.40
2022-07-29T10:00:15.750Z,4.18
2022-07-29T10:05:21.294Z,4.97
2022-07-29T10:10:31.727Z,7.28
2022-07-29T10:15:38.728Z,7.32
2022-07-29T10:20:41.376Z,6.40
2022-07-29T10:25:46.359Z,5.18
2022-07-29T10:30:51.568Z,4.20
2022-07-29T10:36:20.742Z,4.70
2022-07-29T10:41:44.230Z,6.30
2022-07-29T10:46:47.497Z,3.97
2022-07-29T10:57:25.797Z,2.22
2022-07-29T11:02:49.404Z,1.95
2022-07-29T11:08:16.197Z,4.25
2022-07-29T11:13:44.689Z,4.18
2022-07-29T11:19:14.010Z,3.10
2022-07-29T11:24:29.103Z,4.00
2022-07-29T11:29:33.109Z,2.50
2022-07-29T11:34:42.530Z,4.72
2022-07-29T11:40:02.054Z,2.65
2022-07-29T11:45:43.140Z,4.10
2022-07-29T11:50:44.574Z,4.13
2022-07-29T11:55:56.307Z,3.78
2022-07-29T12:06:23.338Z,2.60
2022-07-29T12:07:02.432Z,3.63
2022-07-29T12:11:25.350Z,6.10
2022-07-29T12:16:38.383Z,3.95
2022-07-29T12:21:56.247Z,1.70
2022-07-29T12:27:00.749Z,9.63
2022-07-29T12:32:14.513Z,3.55
2022-07-29T12:37:17.404Z,2.72
2022-07-29T12:42:19.431Z,2.92
2022-07-29T12:47:21.784Z,6.30
2022-07-29T12:52:35.221Z,4.05
2022-07-29T12:57:48.264Z,3.78
2022-07-29T13:03:01.985Z,5.22
2022-07-29T13:08:20.256Z,3.28
2022-07-29T13:13:24.558Z,3.35
2022-07-29T13:18:36.426Z,4.63
2022-07-29T13:23:38.687Z,3.60
2022-07-29T13:28:41.067Z,6.37
2022-07-29T13:33:46.538Z,3.10
2022-07-29T13:38:48.820Z,5.23
2022-07-29T13:43:50.978Z,1.92
2022-07-29T13:48:53.282Z,3.10
2022-07-29T13:53:55.550Z,4.47
2022-07-29T13:58:58.229Z,2.53
2022-07-29T14:04:00.723Z,3.90
2022-07-29T14:09:03.867Z,1.77
2022-07-29T14:14:06.398Z,4.20
2022-07-29T14:19:08.762Z,2.47
2022-07-29T14:24:18.069Z,1.40
2022-07-29T14:34:42.136Z,3.55
2022-07-29T14:39:44.413Z,2.67
2022-07-29T14:44:46.736Z,3.23
2022-07-29T14:49:49.161Z,1.30
2022-07-29T14:54:51.275Z,5.78
2022-07-29T14:59:53.313Z,4.73
2022-07-29T15:04:55.720Z,6.73
2022-07-29T15:09:59.802Z,3.05
2022-07-29T15:15:02.293Z,1.55
2022-07-29T15:20:06.474Z,1.42
2022-07-29T15:25:08.944Z,1.60
2022-07-29T15:30:11.880Z,2.50
2022-07-29T15:35:40.368Z,7.38
2022-07-29T15:40:44.535Z,3.42
2022-07-29T15:46:06.572Z,3.95
2022-07-29T15:51:08.750Z,4.97
2022-07-29T15:56:10.906Z,10.87
2022-07-29T16:01:12.946Z,3.80
2022-07-29T16:06:15.039Z,9.67
2022-07-29T16:11:17.362Z,3.53
2022-07-29T16:16:19.493Z,7.57
2022-07-29T16:21:22.937Z,3.53
2022-07-29T16:26:24.970Z,8.07
2022-07-29T16:31:27.352Z,5.03
2022-07-29T16:36:29.426Z,3.80
2022-07-29T16:41:32.001Z,3.33
2022-07-29T16:46:37.304Z,4.50
2022-07-29T16:51:40.976Z,2.70
2022-07-29T16:56:44.686Z,3.10
2022-07-29T17:01:46.923Z,3.87
2022-07-29T17:06:50.618Z,3.03
2022-07-29T17:11:55.161Z,7.47
2022-07-29T17:17:00.984Z,8.00
2022-07-29T17:22:11.625Z,2.55
2022-07-29T17:27:16.455Z,3.87
2022-07-29T17:32:18.466Z,7.17
2022-07-29T17:37:20.490Z,13.13
2022-07-29T17:42:22.691Z,3.85
2022-07-29T17:47:24.961Z,3.73
2022-07-29T17:52:26.920Z,7.17
2022-07-29T17:57:29.147Z,4.88
2022-07-29T18:02:31.162Z,5.50
2022-07-29T18:07:33.838Z,8.07
2022-07-29T18:12:36.170Z,9.95
2022-07-29T18:17:52.992Z,6.90
2022-07-29T18:22:59.704Z,9.23
2022-07-29T18:28:02.369Z,10.30
2022-07-29T18:33:20.665Z,6.80
2022-07-29T18:38:24.139Z,5.80
2022-07-29T18:43:26.799Z,8.60
2022-07-29T18:48:29.626Z,6.75
2022-07-29T18:53:35.999Z,9.30
2022-07-29T18:58:39.399Z,9.63
2022-07-29T19:03:41.412Z,8.77
2022-07-29T19:08:43.462Z,10.93
2022-07-29T19:13:45.837Z,7.35
2022-07-29T19:18:47.910Z,5.60
2022-07-29T19:24:05.214Z,10.10
2022-07-29T19:29:09.777Z,11.75
2022-07-29T19:34:11.849Z,7.53
2022-07-29T19:39:15.500Z,7.82
2022-07-29T19:44:17.618Z,10.02
2022-07-29T19:49:24.997Z,4.47
2022-07-29T19:54:27.025Z,10.80
2022-07-29T19:59:29.599Z,7.60
2022-07-29T20:04:32.467Z,9.43
2022-07-29T20:09:36.588Z,5.97
2022-07-29T20:14:39.094Z,4.97
2022-07-29T20:19:42.703Z,7.90
2022-07-29T20:24:46.914Z,6.38
2022-07-29T20:29:49.044Z,4.82
2022-07-29T20:34:53.703Z,4.22
2022-07-29T20:39:57.613Z,7.07
2022-07-29T20:44:59.928Z,7.37
2022-07-29T20:50:02.479Z,6.47
2022-07-29T20:55:04.952Z,4.40
2022-07-29T21:00:08.681Z,3.67
2022-07-29T21:05:11.050Z,5.07
2022-07-29T21:10:14.453Z,4.20
2022-07-29T21:15:17.557Z,6.57
2022-07-29T21:20:19.891Z,7.38
2022-07-29T21:25:22.913Z,4.80
2022-07-29T21:30:25.424Z,4.25
2022-07-29T21:36:01.977Z,6.73
2022-07-29T21:40:52.287Z,4.57
2022-07-29T21:45:54.957Z,5.18
2022-07-29T21:50:57.145Z,6.27
2022-07-29T21:56:00.635Z,5.35
2022-07-29T22:01:03.257Z,5.13
2022-07-29T22:06:05.438Z,4.17
2022-07-29T22:11:07.928Z,6.55
2022-07-29T22:16:14.771Z,3.80
2022-07-29T22:21:16.825Z,7.22
2022-07-29T22:26:19.429Z,4.53
2022-07-29T22:31:21.696Z,5.73
2022-07-29T22:36:23.731Z,3.65
2022-07-29T22:41:25.949Z,4.32
2022-07-29T22:46:28.252Z,5.40
2022-07-29T22:51:30.902Z,3.85
2022-07-29T22:56:33.113Z,3.37
2022-07-29T23:01:37.616Z,4.40
2022-07-29T23:06:40.378Z,3.90
2022-07-29T23:11:42.589Z,3.45
2022-07-29T23:16:45.060Z,5.00
2022-07-29T23:21:47.129Z,4.95
2022-07-29T23:26:49.212Z,6.18
2022-07-29T23:31:53.469Z,4.45
2022-07-29T23:36:55.698Z,3.90
2022-07-29T23:41:57.865Z,4.10
2022-07-29T23:47:00.285Z,5.68
2022-07-29T23:52:02.602Z,2.83
2022-07-29T23:57:04.609Z,10.10
